Sunday, July 22, 2018, 8:54 AM EDT
Back to Local

KLWM, Lawrence Municipal Airport

Location: North Andover, MA, United States Lat: 42.717
Local Time: 8:54 AM EDT (12:54 GMT) Lon: -71.133
Time Zone: US/Eastern Elev: 147 ft

Show me the last for .
Show Decoded

2018-07-22 08:41 METAR KLWM 221241Z 07009KT 1 1/2SM -RA OVC005 21/18 A3011 RMK AO2 P0005
                 T02110183 $ =
2018-07-22 08:30 METAR KLWM 221230Z 06012G15KT 2 1/2SM -RA OVC005 21/18 A3010 RMK AO2 P0005
                 T02110183 $ =
2018-07-22 08:20 METAR KLWM 221220Z 07008KT 3SM -RA OVC004 21/18 A3011 RMK AO2 P0005 T02110183 $
                 =
2018-07-22 07:54 METAR KLWM 221154Z 07009KT 1 1/2SM -RA OVC004 21/18 A3010 RMK AO2 RAB1057E08B54
                 SLP192 P0000 60000 T02060178 10206 20194 57001 $ =
2018-07-22 07:49 METAR KLWM 221149Z 06009KT 1 1/2SM HZ OVC004 21/18 A3009 RMK AO2 RAB1057E08
                 P0000 $ =
2018-07-22 07:22 METAR KLWM 221122Z 07011KT 1 1/4SM HZ OVC005 21/18 A3011 RMK AO2 RAB1057E08
                 P0000 T02060178 $ =
2018-07-22 07:15 METAR KLWM 221115Z 06011KT 2SM HZ OVC005 21/18 A3011 RMK AO2 RAB1057E08 P0000
                 T02060178 $ =
2018-07-22 07:02 METAR KLWM 221102Z 07009KT 1 1/2SM -RA OVC005 20/17 A3011 RMK AO2 RAB1057 P0000
                 T02000172 $ =
2018-07-22 06:54 METAR KLWM 221054Z 06009KT 2SM HZ OVC006 20/17 A3010 RMK AO2 RAE47 SLP193 P0000
                 T02000172 =
2018-07-22 06:19 METAR KLWM 221019Z 07010KT 8SM -RA OVC008 21/17 A3011 RMK AO2 P0000 T02060172 =
2018-07-22 05:54 METAR KLWM 220954Z AUTO 05010KT 9SM -RA OVC011 21/17 A3010 RMK AO2 RAB48 CIG
                 009V015 SLP191 P0000 T02060167 =
2018-07-22 04:54 METAR KLWM 220854Z AUTO 06007KT 10SM BKN010 OVC065 21/16 A3011 RMK AO2 SLP193
                 T02060161 56005 =
2018-07-22 03:54 METAR KLWM 220754Z AUTO 06006KT 10SM OVC011 20/16 A3011 RMK AO2 SLP195 T02000161
                 =
2018-07-22 03:26 METAR KLWM 220726Z AUTO 06005KT 10SM BKN011 OVC080 20/16 A3012 RMK AO2 T02000156
                 =
2018-07-22 02:54 METAR KLWM 220654Z AUTO 05006KT 10SM SCT012 OVC085 19/16 A3011 RMK AO2 SLP196
                 T01940156 =
2018-07-22 01:54 METAR KLWM 220554Z AUTO 07004KT 10SM FEW013 BKN085 19/15 A3012 RMK AO2 SLP199
                 T01940150 10222 20189 56012 =
2018-07-22 00:54 METAR KLWM 220454Z AUTO 07003KT 10SM CLR 19/15 A3013 RMK AO2 SLP200 T01890150
                 402670150 =
2018-07-21 23:54 METAR KLWM 220354Z AUTO 06005KT 10SM FEW065 19/15 A3014 RMK AO2 SLP205 T01940150
                 =
2018-07-21 22:54 METAR KLWM 220254Z AUTO 07004KT 10SM OVC060 20/15 A3016 RMK AO2 SLP210 T02000150
                 58001 =
2018-07-21 22:15 METAR KLWM 220215Z AUTO 07006KT 10SM SCT021 BKN055 20/15 A3016 RMK AO2 T02000150
                 =
2018-07-21 21:54 METAR KLWM 220154Z 06005KT 10SM BKN021 20/15 A3016 RMK AO2 SLP213 T02000150 =
2018-07-21 20:54 METAR KLWM 220054Z 10004KT 10SM BKN021 21/15 A3017 RMK AO2 SLP213 T02110150 =
2018-07-21 19:54 METAR KLWM 212354Z VRB05KT 10SM SCT028 22/14 A3016 RMK AO2 SLPNO T02170144 10267
                 20217 51009 =
2018-07-21 19:11 METAR KLWM 212311Z 11008KT 10SM BKN027 22/14 A3016 RMK AO2 T02220139 =
2018-07-21 18:54 METAR KLWM 212254Z VRB05KT 10SM SCT027 23/14 A3016 RMK AO2 SLP211 T02280144 =
2018-07-21 17:54 METAR KLWM 212154Z 08009KT 10SM SCT027 24/15 A3014 RMK AO2 SLP207 T02390150 =
2018-07-21 16:54 METAR KLWM 212054Z 09009KT 10SM FEW031 25/15 A3013 RMK AO2 SLP203 T02500150
                 58012 =
2018-07-21 15:54 METAR KLWM 211954Z 09007KT 10SM SCT033 26/15 A3015 RMK AO2 SLP208 T02610150 =
2018-07-21 14:54 METAR KLWM 211854Z 08009KT 10SM BKN044 27/15 A3016 RMK AO2 SLP212 T02670150 =
2018-07-21 13:54 METAR KLWM 211754Z 11007KT 10SM SCT041 26/14 A3017 RMK AO2 SLP214 T02610144
                 58007 =
2018-07-21 12:54 METAR KLWM 211654Z VRB06KT 10SM FEW041 26/13 A3018 RMK AO2 SLP218 T02610128 =
2018-07-21 11:54 METAR KLWM 211554Z VRB04KT 10SM CLR 26/12 A3019 RMK AO2 SLP221 T02610117 $ =
2018-07-21 10:54 METAR KLWM 211454Z 10004KT 10SM FEW041 25/12 A3019 RMK AO2 SLP221 T02500122
                 56002 $ =
2018-07-21 09:54 METAR KLWM 211354Z VRB04KT 10SM CLR 24/13 A3019 RMK AO2 SLP222 T02440128 $ =

Support USWX by starting your Amazon purchase here.